sensor_id;sensor_type;location;lat;lon;timestamp;P1;durP1;ratioP1;P2;durP2;ratioP2
26600;SDS011;14241;49.260;10.496;2022-10-31T00:00:49;7.83;;;4.93;;
26600;SDS011;14241;49.260;10.496;2022-10-31T00:03:14;5.60;;;4.80;;
26600;SDS011;14241;49.260;10.496;2022-10-31T00:05:46;8.70;;;4.38;;
26600;SDS011;14241;49.260;10.496;2022-10-31T00:08:11;7.82;;;4.30;;
26600;SDS011;14241;49.260;10.496;2022-10-31T00:10:37;5.77;;;4.07;;
26600;SDS011;14241;49.260;10.496;2022-10-31T00:13:03;10.38;;;4.13;;
26600;SDS011;14241;49.260;10.496;2022-10-31T00:15:28;9.27;;;4.40;;
26600;SDS011;14241;49.260;10.496;2022-10-31T00:17:53;8.47;;;3.93;;
26600;SDS011;14241;49.260;10.496;2022-10-31T00:20:18;7.13;;;3.87;;
26600;SDS011;14241;49.260;10.496;2022-10-31T00:22:43;6.80;;;4.67;;
26600;SDS011;14241;49.260;10.496;2022-10-31T00:25:08;6.87;;;4.33;;
26600;SDS011;14241;49.260;10.496;2022-10-31T00:27:34;4.93;;;3.90;;
26600;SDS011;14241;49.260;10.496;2022-10-31T00:29:59;6.30;;;3.90;;
26600;SDS011;14241;49.260;10.496;2022-10-31T00:32:24;7.60;;;4.55;;
26600;SDS011;14241;49.260;10.496;2022-10-31T00:34:49;7.33;;;4.90;;
26600;SDS011;14241;49.260;10.496;2022-10-31T00:37:14;7.70;;;4.63;;
26600;SDS011;14241;49.260;10.496;2022-10-31T00:39:40;6.30;;;4.50;;
26600;SDS011;14241;49.260;10.496;2022-10-31T00:42:05;7.67;;;4.43;;
26600;SDS011;14241;49.260;10.496;2022-10-31T00:44:30;7.23;;;4.77;;
26600;SDS011;14241;49.260;10.496;2022-10-31T00:46:55;7.83;;;4.97;;
26600;SDS011;14241;49.260;10.496;2022-10-31T00:49:20;6.03;;;4.43;;
26600;SDS011;14241;49.260;10.496;2022-10-31T00:51:46;6.38;;;4.20;;
26600;SDS011;14241;49.260;10.496;2022-10-31T00:54:11;14.40;;;4.57;;
26600;SDS011;14241;49.260;10.496;2022-10-31T00:56:36;5.70;;;3.93;;
26600;SDS011;14241;49.260;10.496;2022-10-31T00:59:01;6.73;;;4.10;;
26600;SDS011;14241;49.260;10.496;2022-10-31T01:01:26;8.27;;;4.07;;
26600;SDS011;14241;49.260;10.496;2022-10-31T01:03:51;9.47;;;4.90;;
26600;SDS011;14241;49.260;10.496;2022-10-31T01:06:17;6.67;;;4.50;;
26600;SDS011;14241;49.260;10.496;2022-10-31T01:08:42;7.60;;;4.40;;
26600;SDS011;14241;49.260;10.496;2022-10-31T01:11:12;6.57;;;3.55;;
26600;SDS011;14241;49.260;10.496;2022-10-31T01:13:37;8.55;;;4.05;;
26600;SDS011;14241;49.260;10.496;2022-10-31T01:16:04;7.57;;;3.90;;
26600;SDS011;14241;49.260;10.496;2022-10-31T01:18:29;3.75;;;3.25;;
26600;SDS011;14241;49.260;10.496;2022-10-31T01:23:32;3.75;;;2.92;;
26600;SDS011;14241;49.260;10.496;2022-10-31T01:25:58;3.70;;;2.70;;
26600;SDS011;14241;49.260;10.496;2022-10-31T01:28:23;5.88;;;3.35;;
26600;SDS011;14241;49.260;10.496;2022-10-31T01:30:49;5.03;;;2.97;;
26600;SDS011;14241;49.260;10.496;2022-10-31T01:33:14;3.73;;;3.00;;
26600;SDS011;14241;49.260;10.496;2022-10-31T01:35:39;6.03;;;3.47;;
26600;SDS011;14241;49.260;10.496;2022-10-31T01:38:04;7.10;;;3.70;;
26600;SDS011;14241;49.260;10.496;2022-10-31T01:40:29;4.30;;;3.40;;
26600;SDS011;14241;49.260;10.496;2022-10-31T01:42:55;7.90;;;3.88;;
26600;SDS011;14241;49.260;10.496;2022-10-31T01:45:20;8.80;;;4.35;;
26600;SDS011;14241;49.260;10.496;2022-10-31T01:47:46;8.82;;;4.82;;
26600;SDS011;14241;49.260;10.496;2022-10-31T01:50:14;9.32;;;4.68;;
26600;SDS011;14241;49.260;10.496;2022-10-31T01:52:44;5.53;;;4.30;;
26600;SDS011;14241;49.260;10.496;2022-10-31T01:57:45;7.15;;;4.63;;
26600;SDS011;14241;49.260;10.496;2022-10-31T02:00:11;7.22;;;4.70;;
26600;SDS011;14241;49.260;10.496;2022-10-31T02:02:37;7.85;;;5.18;;
26600;SDS011;14241;49.260;10.496;2022-10-31T02:05:04;6.72;;;4.40;;
26600;SDS011;14241;49.260;10.496;2022-10-31T02:07:32;4.53;;;3.95;;
26600;SDS011;14241;49.260;10.496;2022-10-31T02:09:58;14.05;;;4.53;;
26600;SDS011;14241;49.260;10.496;2022-10-31T02:12:25;9.70;;;4.07;;
26600;SDS011;14241;49.260;10.496;2022-10-31T02:14:50;5.07;;;3.75;;
26600;SDS011;14241;49.260;10.496;2022-10-31T02:17:15;7.63;;;3.72;;
26600;SDS011;14241;49.260;10.496;2022-10-31T02:19:45;6.20;;;3.90;;
26600;SDS011;14241;49.260;10.496;2022-10-31T02:22:16;8.25;;;3.35;;
26600;SDS011;14241;49.260;10.496;2022-10-31T02:24:52;5.53;;;3.60;;
26600;SDS011;14241;49.260;10.496;2022-10-31T02:32:42;7.63;;;3.33;;
26600;SDS011;14241;49.260;10.496;2022-10-31T02:38:02;3.17;;;2.88;;
26600;SDS011;14241;49.260;10.496;2022-10-31T02:41:15;4.05;;;2.88;;
26600;SDS011;14241;49.260;10.496;2022-10-31T02:45:44;5.80;;;3.43;;
26600;SDS011;14241;49.260;10.496;2022-10-31T02:48:11;4.95;;;3.30;;
26600;SDS011;14241;49.260;10.496;2022-10-31T02:50:38;3.83;;;3.38;;
26600;SDS011;14241;49.260;10.496;2022-10-31T02:53:05;6.13;;;3.95;;
26600;SDS011;14241;49.260;10.496;2022-10-31T02:58:06;6.90;;;4.30;;
26600;SDS011;14241;49.260;10.496;2022-10-31T03:00:36;4.35;;;3.95;;
26600;SDS011;14241;49.260;10.496;2022-10-31T03:03:17;4.85;;;4.25;;
26600;SDS011;14241;49.260;10.496;2022-10-31T03:05:53;6.18;;;3.92;;
26600;SDS011;14241;49.260;10.496;2022-10-31T03:08:30;5.60;;;3.50;;
26600;SDS011;14241;49.260;10.496;2022-10-31T03:10:57;3.90;;;3.47;;
26600;SDS011;14241;49.260;10.496;2022-10-31T03:15:56;6.40;;;4.15;;
26600;SDS011;14241;49.260;10.496;2022-10-31T03:18:27;6.32;;;3.72;;
26600;SDS011;14241;49.260;10.496;2022-10-31T03:20:58;6.65;;;3.65;;
26600;SDS011;14241;49.260;10.496;2022-10-31T03:23:26;4.22;;;3.63;;
26600;SDS011;14241;49.260;10.496;2022-10-31T03:25:52;5.40;;;3.90;;
26600;SDS011;14241;49.260;10.496;2022-10-31T03:28:19;4.75;;;3.33;;
26600;SDS011;14241;49.260;10.496;2022-10-31T03:30:47;4.13;;;3.10;;
26600;SDS011;14241;49.260;10.496;2022-10-31T03:33:15;4.78;;;2.78;;
26600;SDS011;14241;49.260;10.496;2022-10-31T03:35:42;3.17;;;2.88;;
26600;SDS011;14241;49.260;10.496;2022-10-31T03:38:09;6.40;;;3.53;;
26600;SDS011;14241;49.260;10.496;2022-10-31T03:40:35;4.35;;;3.60;;
26600;SDS011;14241;49.260;10.496;2022-10-31T03:43:03;4.80;;;3.22;;
26600;SDS011;14241;49.260;10.496;2022-10-31T03:45:30;3.65;;;3.10;;
26600;SDS011;14241;49.260;10.496;2022-10-31T03:47:55;6.68;;;3.22;;
26600;SDS011;14241;49.260;10.496;2022-10-31T03:50:21;9.32;;;4.18;;
26600;SDS011;14241;49.260;10.496;2022-10-31T03:52:59;5.10;;;3.88;;
26600;SDS011;14241;49.260;10.496;2022-10-31T03:58:03;8.10;;;3.00;;
26600;SDS011;14241;49.260;10.496;2022-10-31T04:00:30;9.15;;;4.75;;
26600;SDS011;14241;49.260;10.496;2022-10-31T04:03:00;7.75;;;4.47;;
26600;SDS011;14241;49.260;10.496;2022-10-31T04:05:26;12.07;;;3.90;;
26600;SDS011;14241;49.260;10.496;2022-10-31T04:07:53;7.22;;;4.25;;
26600;SDS011;14241;49.260;10.496;2022-10-31T04:10:19;7.20;;;3.78;;
26600;SDS011;14241;49.260;10.496;2022-10-31T04:12:47;3.78;;;3.38;;
26600;SDS011;14241;49.260;10.496;2022-10-31T04:15:13;2.92;;;2.67;;
26600;SDS011;14241;49.260;10.496;2022-10-31T04:17:39;5.65;;;2.65;;
26600;SDS011;14241;49.260;10.496;2022-10-31T04:20:05;3.28;;;2.83;;
26600;SDS011;14241;49.260;10.496;2022-10-31T04:22:30;5.47;;;2.65;;
26600;SDS011;14241;49.260;10.496;2022-10-31T04:24:56;3.53;;;2.80;;
26600;SDS011;14241;49.260;10.496;2022-10-31T04:27:21;4.50;;;2.93;;
26600;SDS011;14241;49.260;10.496;2022-10-31T04:29:46;3.83;;;3.00;;
26600;SDS011;14241;49.260;10.496;2022-10-31T04:32:11;4.87;;;3.00;;
26600;SDS011;14241;49.260;10.496;2022-10-31T04:34:36;3.17;;;2.63;;
26600;SDS011;14241;49.260;10.496;2022-10-31T04:37:02;3.23;;;2.93;;
26600;SDS011;14241;49.260;10.496;2022-10-31T04:39:27;2.80;;;2.60;;
26600;SDS011;14241;49.260;10.496;2022-10-31T04:41:52;2.70;;;2.50;;
26600;SDS011;14241;49.260;10.496;2022-10-31T04:44:17;2.70;;;2.50;;
26600;SDS011;14241;49.260;10.496;2022-10-31T04:46:43;2.60;;;2.40;;
26600;SDS011;14241;49.260;10.496;2022-10-31T04:49:08;2.88;;;2.40;;
26600;SDS011;14241;49.260;10.496;2022-10-31T04:51:33;2.80;;;2.60;;
26600;SDS011;14241;49.260;10.496;2022-10-31T04:53:58;3.73;;;2.37;;
26600;SDS011;14241;49.260;10.496;2022-10-31T04:56:24;2.43;;;2.27;;
26600;SDS011;14241;49.260;10.496;2022-10-31T04:58:49;3.00;;;2.00;;
26600;SDS011;14241;49.260;10.496;2022-10-31T05:01:14;3.38;;;2.35;;
26600;SDS011;14241;49.260;10.496;2022-10-31T05:03:39;3.27;;;2.80;;
26600;SDS011;14241;49.260;10.496;2022-10-31T05:06:05;3.17;;;2.40;;
26600;SDS011;14241;49.260;10.496;2022-10-31T05:08:30;2.42;;;2.10;;
26600;SDS011;14241;49.260;10.496;2022-10-31T05:10:59;2.40;;;2.20;;
26600;SDS011;14241;49.260;10.496;2022-10-31T05:13:24;3.00;;;2.45;;
26600;SDS011;14241;49.260;10.496;2022-10-31T05:15:49;2.45;;;2.00;;
26600;SDS011;14241;49.260;10.496;2022-10-31T05:18:15;2.43;;;2.23;;
26600;SDS011;14241;49.260;10.496;2022-10-31T05:20:40;2.27;;;2.07;;
26600;SDS011;14241;49.260;10.496;2022-10-31T05:23:05;3.13;;;2.00;;
26600;SDS011;14241;49.260;10.496;2022-10-31T05:25:30;2.67;;;1.70;;
26600;SDS011;14241;49.260;10.496;2022-10-31T05:27:56;1.98;;;1.75;;
26600;SDS011;14241;49.260;10.496;2022-10-31T05:30:22;2.88;;;1.98;;
26600;SDS011;14241;49.260;10.496;2022-10-31T05:32:48;3.47;;;2.03;;
26600;SDS011;14241;49.260;10.496;2022-10-31T05:35:15;2.78;;;2.10;;
26600;SDS011;14241;49.260;10.496;2022-10-31T05:37:41;3.20;;;2.13;;
26600;SDS011;14241;49.260;10.496;2022-10-31T05:40:07;3.20;;;2.10;;
26600;SDS011;14241;49.260;10.496;2022-10-31T05:42:33;3.97;;;2.20;;
26600;SDS011;14241;49.260;10.496;2022-10-31T05:44:58;2.40;;;2.20;;
26600;SDS011;14241;49.260;10.496;2022-10-31T05:47:23;2.85;;;2.50;;
26600;SDS011;14241;49.260;10.496;2022-10-31T05:49:49;3.67;;;2.17;;
26600;SDS011;14241;49.260;10.496;2022-10-31T05:52:14;6.60;;;2.87;;
26600;SDS011;14241;49.260;10.496;2022-10-31T05:54:39;2.65;;;2.10;;
26600;SDS011;14241;49.260;10.496;2022-10-31T05:57:04;3.37;;;2.30;;
26600;SDS011;14241;49.260;10.496;2022-10-31T05:59:30;2.55;;;2.13;;
26600;SDS011;14241;49.260;10.496;2022-10-31T06:01:55;4.63;;;2.60;;
26600;SDS011;14241;49.260;10.496;2022-10-31T06:04:20;4.47;;;2.30;;
26600;SDS011;14241;49.260;10.496;2022-10-31T06:06:45;3.70;;;2.40;;
26600;SDS011;14241;49.260;10.496;2022-10-31T06:09:10;3.27;;;2.50;;
26600;SDS011;14241;49.260;10.496;2022-10-31T06:11:36;4.23;;;2.50;;
26600;SDS011;14241;49.260;10.496;2022-10-31T06:14:01;2.97;;;2.30;;
26600;SDS011;14241;49.260;10.496;2022-10-31T06:16:26;3.85;;;2.20;;
26600;SDS011;14241;49.260;10.496;2022-10-31T06:18:51;4.47;;;2.50;;
26600;SDS011;14241;49.260;10.496;2022-10-31T06:21:17;3.88;;;2.85;;
26600;SDS011;14241;49.260;10.496;2022-10-31T06:23:42;3.83;;;1.92;;
26600;SDS011;14241;49.260;10.496;2022-10-31T06:26:07;3.43;;;2.40;;
26600;SDS011;14241;49.260;10.496;2022-10-31T06:28:32;2.50;;;2.30;;
26600;SDS011;14241;49.260;10.496;2022-10-31T06:30:57;5.50;;;2.55;;
26600;SDS011;14241;49.260;10.496;2022-10-31T06:33:23;3.03;;;2.73;;
26600;SDS011;14241;49.260;10.496;2022-10-31T06:35:48;4.00;;;3.00;;
26600;SDS011;14241;49.260;10.496;2022-10-31T06:38:13;4.57;;;3.33;;
26600;SDS011;14241;49.260;10.496;2022-10-31T06:40:39;3.85;;;2.92;;
26600;SDS011;14241;49.260;10.496;2022-10-31T06:43:04;4.87;;;3.10;;
26600;SDS011;14241;49.260;10.496;2022-10-31T06:45:29;7.07;;;3.23;;
26600;SDS011;14241;49.260;10.496;2022-10-31T06:47:55;3.50;;;2.90;;
26600;SDS011;14241;49.260;10.496;2022-10-31T06:50:20;6.30;;;3.83;;
26600;SDS011;14241;49.260;10.496;2022-10-31T06:55:17;5.72;;;4.53;;
26600;SDS011;14241;49.260;10.496;2022-10-31T06:57:42;9.93;;;4.18;;
26600;SDS011;14241;49.260;10.496;2022-10-31T07:00:13;8.73;;;4.80;;
26600;SDS011;14241;49.260;10.496;2022-10-31T07:02:39;7.90;;;4.43;;
26600;SDS011;14241;49.260;10.496;2022-10-31T07:05:04;6.57;;;4.00;;
26600;SDS011;14241;49.260;10.496;2022-10-31T07:07:29;8.73;;;4.10;;
26600;SDS011;14241;49.260;10.496;2022-10-31T07:09:55;16.67;;;4.47;;
26600;SDS011;14241;49.260;10.496;2022-10-31T07:12:20;8.10;;;4.33;;
26600;SDS011;14241;49.260;10.496;2022-10-31T07:14:45;5.80;;;3.83;;
26600;SDS011;14241;49.260;10.496;2022-10-31T07:17:10;6.53;;;4.43;;
26600;SDS011;14241;49.260;10.496;2022-10-31T07:19:35;5.80;;;4.13;;
26600;SDS011;14241;49.260;10.496;2022-10-31T07:22:00;5.47;;;4.77;;
26600;SDS011;14241;49.260;10.496;2022-10-31T07:24:26;5.03;;;4.53;;
26600;SDS011;14241;49.260;10.496;2022-10-31T07:26:51;4.90;;;4.10;;
26600;SDS011;14241;49.260;10.496;2022-10-31T07:29:16;4.80;;;4.20;;
26600;SDS011;14241;49.260;10.496;2022-10-31T07:31:41;6.07;;;4.67;;
26600;SDS011;14241;49.260;10.496;2022-10-31T07:34:06;4.78;;;4.25;;
26600;SDS011;14241;49.260;10.496;2022-10-31T07:36:32;4.70;;;4.30;;
26600;SDS011;14241;49.260;10.496;2022-10-31T07:38:57;7.40;;;4.82;;
26600;SDS011;14241;49.260;10.496;2022-10-31T07:41:23;5.57;;;5.00;;
26600;SDS011;14241;49.260;10.496;2022-10-31T07:43:49;6.63;;;4.57;;
26600;SDS011;14241;49.260;10.496;2022-10-31T07:46:14;6.72;;;4.50;;
26600;SDS011;14241;49.260;10.496;2022-10-31T07:48:39;6.50;;;4.80;;
26600;SDS011;14241;49.260;10.496;2022-10-31T07:51:04;5.37;;;4.80;;
26600;SDS011;14241;49.260;10.496;2022-10-31T07:53:31;8.27;;;5.28;;
26600;SDS011;14241;49.260;10.496;2022-10-31T07:55:57;6.72;;;4.65;;
26600;SDS011;14241;49.260;10.496;2022-10-31T07:58:22;7.67;;;5.73;;
26600;SDS011;14241;49.260;10.496;2022-10-31T08:00:47;10.60;;;4.93;;
26600;SDS011;14241;49.260;10.496;2022-10-31T08:03:13;7.95;;;5.20;;
26600;SDS011;14241;49.260;10.496;2022-10-31T08:05:39;9.07;;;6.00;;
26600;SDS011;14241;49.260;10.496;2022-10-31T08:08:06;9.32;;;5.93;;
26600;SDS011;14241;49.260;10.496;2022-10-31T08:10:32;6.82;;;5.80;;
26600;SDS011;14241;49.260;10.496;2022-10-31T08:12:57;8.90;;;6.13;;
26600;SDS011;14241;49.260;10.496;2022-10-31T08:15:23;12.02;;;6.25;;
26600;SDS011;14241;49.260;10.496;2022-10-31T08:17:48;8.85;;;6.40;;
26600;SDS011;14241;49.260;10.496;2022-10-31T08:20:14;13.00;;;6.28;;
26600;SDS011;14241;49.260;10.496;2022-10-31T08:22:39;9.38;;;6.82;;
26600;SDS011;14241;49.260;10.496;2022-10-31T08:25:04;8.10;;;6.50;;
26600;SDS011;14241;49.260;10.496;2022-10-31T08:27:29;11.10;;;6.28;;
26600;SDS011;14241;49.260;10.496;2022-10-31T08:29:54;9.77;;;5.87;;
26600;SDS011;14241;49.260;10.496;2022-10-31T08:32:20;10.60;;;5.97;;
26600;SDS011;14241;49.260;10.496;2022-10-31T08:34:45;6.53;;;5.45;;
26600;SDS011;14241;49.260;10.496;2022-10-31T08:37:10;6.40;;;5.30;;
26600;SDS011;14241;49.260;10.496;2022-10-31T08:39:35;8.77;;;6.10;;
26600;SDS011;14241;49.260;10.496;2022-10-31T08:42:01;10.33;;;5.97;;
26600;SDS011;14241;49.260;10.496;2022-10-31T08:44:26;9.70;;;6.27;;
26600;SDS011;14241;49.260;10.496;2022-10-31T08:46:51;9.70;;;5.90;;
26600;SDS011;14241;49.260;10.496;2022-10-31T08:49:16;11.53;;;6.07;;
26600;SDS011;14241;49.260;10.496;2022-10-31T08:51:41;8.00;;;6.35;;
26600;SDS011;14241;49.260;10.496;2022-10-31T08:54:06;9.50;;;7.53;;
26600;SDS011;14241;49.260;10.496;2022-10-31T08:56:32;13.23;;;7.50;;
26600;SDS011;14241;49.260;10.496;2022-10-31T08:58:57;8.93;;;6.50;;
26600;SDS011;14241;49.260;10.496;2022-10-31T09:01:22;11.95;;;7.28;;
26600;SDS011;14241;49.260;10.496;2022-10-31T09:03:47;12.18;;;6.57;;
26600;SDS011;14241;49.260;10.496;2022-10-31T09:06:13;9.77;;;6.43;;
26600;SDS011;14241;49.260;10.496;2022-10-31T09:08:38;10.55;;;5.97;;
26600;SDS011;14241;49.260;10.496;2022-10-31T09:11:03;14.40;;;6.87;;
26600;SDS011;14241;49.260;10.496;2022-10-31T09:13:29;9.98;;;6.20;;
26600;SDS011;14241;49.260;10.496;2022-10-31T09:15:55;12.17;;;6.47;;
26600;SDS011;14241;49.260;10.496;2022-10-31T09:18:21;11.00;;;6.45;;
26600;SDS011;14241;49.260;10.496;2022-10-31T09:20:47;8.93;;;6.10;;
26600;SDS011;14241;49.260;10.496;2022-10-31T09:23:13;12.77;;;6.43;;
26600;SDS011;14241;49.260;10.496;2022-10-31T09:25:39;13.60;;;6.68;;
26600;SDS011;14241;49.260;10.496;2022-10-31T09:28:05;11.90;;;7.43;;
26600;SDS011;14241;49.260;10.496;2022-10-31T09:30:32;10.23;;;7.13;;
26600;SDS011;14241;49.260;10.496;2022-10-31T09:32:58;11.13;;;6.90;;
26600;SDS011;14241;49.260;10.496;2022-10-31T09:35:24;11.85;;;7.82;;
26600;SDS011;14241;49.260;10.496;2022-10-31T09:37:56;18.17;;;7.85;;
26600;SDS011;14241;49.260;10.496;2022-10-31T09:40:30;13.77;;;7.57;;
26600;SDS011;14241;49.260;10.496;2022-10-31T09:48:37;12.40;;;7.57;;
26600;SDS011;14241;49.260;10.496;2022-10-31T09:53:39;16.83;;;7.25;;
26600;SDS011;14241;49.260;10.496;2022-10-31T09:56:06;11.90;;;7.50;;
26600;SDS011;14241;49.260;10.496;2022-10-31T09:58:32;13.80;;;7.30;;
26600;SDS011;14241;49.260;10.496;2022-10-31T10:01:00;15.45;;;7.22;;
26600;SDS011;14241;49.260;10.496;2022-10-31T10:03:47;11.10;;;7.13;;
26600;SDS011;14241;49.260;10.496;2022-10-31T10:06:16;12.57;;;7.63;;
26600;SDS011;14241;49.260;10.496;2022-10-31T10:08:43;11.43;;;6.20;;
26600;SDS011;14241;49.260;10.496;2022-10-31T10:14:14;13.40;;;6.47;;
26600;SDS011;14241;49.260;10.496;2022-10-31T10:16:44;11.65;;;7.13;;
26600;SDS011;14241;49.260;10.496;2022-10-31T10:19:17;15.57;;;6.47;;
26600;SDS011;14241;49.260;10.496;2022-10-31T10:24:33;15.82;;;6.18;;
26600;SDS011;14241;49.260;10.496;2022-10-31T10:29:34;14.90;;;6.37;;
26600;SDS011;14241;49.260;10.496;2022-10-31T10:32:05;14.32;;;6.05;;
26600;SDS011;14241;49.260;10.496;2022-10-31T10:34:36;15.15;;;7.25;;
26600;SDS011;14241;49.260;10.496;2022-10-31T10:40:00;13.55;;;7.10;;
26600;SDS011;14241;49.260;10.496;2022-10-31T10:42:30;18.45;;;5.85;;
26600;SDS011;14241;49.260;10.496;2022-10-31T10:45:15;10.93;;;6.13;;
26600;SDS011;14241;49.260;10.496;2022-10-31T10:48:02;12.00;;;6.20;;
26600;SDS011;14241;49.260;10.496;2022-10-31T10:50:34;16.63;;;6.10;;
26600;SDS011;14241;49.260;10.496;2022-10-31T10:58:22;13.07;;;5.80;;
26600;SDS011;14241;49.260;10.496;2022-10-31T11:00:47;15.55;;;5.63;;
26600;SDS011;14241;49.260;10.496;2022-10-31T11:03:14;17.65;;;6.80;;
26600;SDS011;14241;49.260;10.496;2022-10-31T11:05:41;12.13;;;6.15;;
26600;SDS011;14241;49.260;10.496;2022-10-31T11:08:09;13.35;;;6.85;;
26600;SDS011;14241;49.260;10.496;2022-10-31T11:10:35;16.07;;;6.10;;
26600;SDS011;14241;49.260;10.496;2022-10-31T11:13:05;12.23;;;6.32;;
26600;SDS011;14241;49.260;10.496;2022-10-31T11:15:49;12.40;;;5.60;;
26600;SDS011;14241;49.260;10.496;2022-10-31T11:18:21;11.65;;;6.00;;
26600;SDS011;14241;49.260;10.496;2022-10-31T11:20:54;14.00;;;5.25;;
26600;SDS011;14241;49.260;10.496;2022-10-31T11:23:20;12.73;;;5.47;;
26600;SDS011;14241;49.260;10.496;2022-10-31T11:28:20;18.13;;;5.70;;
26600;SDS011;14241;49.260;10.496;2022-10-31T11:30:46;12.95;;;5.60;;
26600;SDS011;14241;49.260;10.496;2022-10-31T11:33:16;20.17;;;6.00;;
26600;SDS011;14241;49.260;10.496;2022-10-31T11:35:41;15.23;;;5.82;;
26600;SDS011;14241;49.260;10.496;2022-10-31T11:38:07;13.90;;;5.73;;
26600;SDS011;14241;49.260;10.496;2022-10-31T11:40:32;17.20;;;6.40;;
26600;SDS011;14241;49.260;10.496;2022-10-31T11:42:57;10.37;;;5.20;;
26600;SDS011;14241;49.260;10.496;2022-10-31T11:47:50;12.93;;;5.37;;
26600;SDS011;14241;49.260;10.496;2022-10-31T11:50:35;15.15;;;6.25;;
26600;SDS011;14241;49.260;10.496;2022-10-31T11:53:02;11.13;;;5.22;;
26600;SDS011;14241;49.260;10.496;2022-10-31T11:57:56;14.15;;;4.57;;
26600;SDS011;14241;49.260;10.496;2022-10-31T12:00:26;11.75;;;4.53;;
26600;SDS011;14241;49.260;10.496;2022-10-31T12:03:04;12.38;;;5.20;;
26600;SDS011;14241;49.260;10.496;2022-10-31T12:05:29;10.13;;;4.63;;
26600;SDS011;14241;49.260;10.496;2022-10-31T12:07:58;13.77;;;4.88;;
26600;SDS011;14241;49.260;10.496;2022-10-31T12:10:24;10.13;;;3.88;;
26600;SDS011;14241;49.260;10.496;2022-10-31T12:12:54;11.30;;;4.97;;
26600;SDS011;14241;49.260;10.496;2022-10-31T12:18:02;11.90;;;3.85;;
26600;SDS011;14241;49.260;10.496;2022-10-31T12:25:45;11.45;;;4.38;;
26600;SDS011;14241;49.260;10.496;2022-10-31T12:28:26;12.40;;;4.50;;
26600;SDS011;14241;49.260;10.496;2022-10-31T12:38:51;11.67;;;4.60;;
26600;SDS011;14241;49.260;10.496;2022-10-31T12:47:07;9.95;;;3.97;;
26600;SDS011;14241;49.260;10.496;2022-10-31T12:59:51;10.10;;;3.37;;
26600;SDS011;14241;49.260;10.496;2022-10-31T13:07:36;8.90;;;3.67;;
26600;SDS011;14241;49.260;10.496;2022-10-31T13:12:31;11.10;;;4.15;;
26600;SDS011;14241;49.260;10.496;2022-10-31T13:14:59;9.95;;;3.70;;
26600;SDS011;14241;49.260;10.496;2022-10-31T13:20:05;16.05;;;3.85;;
26600;SDS011;14241;49.260;10.496;2022-10-31T13:22:37;12.20;;;3.38;;
26600;SDS011;14241;49.260;10.496;2022-10-31T13:30:15;13.40;;;3.88;;
26600;SDS011;14241;49.260;10.496;2022-10-31T13:33:03;14.20;;;4.07;;
26600;SDS011;14241;49.260;10.496;2022-10-31T13:35:36;12.50;;;4.00;;
26600;SDS011;14241;49.260;10.496;2022-10-31T13:38:09;11.70;;;5.13;;
26600;SDS011;14241;49.260;10.496;2022-10-31T13:43:36;12.90;;;4.13;;
26600;SDS011;14241;49.260;10.496;2022-10-31T13:46:22;9.40;;;3.60;;
26600;SDS011;14241;49.260;10.496;2022-10-31T13:48:47;8.65;;;3.58;;
26600;SDS011;14241;49.260;10.496;2022-10-31T13:51:13;12.77;;;4.03;;
26600;SDS011;14241;49.260;10.496;2022-10-31T13:56:18;9.45;;;3.72;;
26600;SDS011;14241;49.260;10.496;2022-10-31T14:01:28;14.95;;;4.35;;
26600;SDS011;14241;49.260;10.496;2022-10-31T14:04:38;16.25;;;4.82;;
26600;SDS011;14241;49.260;10.496;2022-10-31T14:11:47;13.02;;;3.92;;
26600;SDS011;14241;49.260;10.496;2022-10-31T14:14:13;11.40;;;3.55;;
26600;SDS011;14241;49.260;10.496;2022-10-31T14:16:38;9.27;;;3.88;;
26600;SDS011;14241;49.260;10.496;2022-10-31T14:19:08;10.85;;;3.58;;
26600;SDS011;14241;49.260;10.496;2022-10-31T14:21:38;12.85;;;4.20;;
26600;SDS011;14241;49.260;10.496;2022-10-31T14:29:25;9.88;;;3.75;;
26600;SDS011;14241;49.260;10.496;2022-10-31T14:32:04;9.02;;;4.07;;
26600;SDS011;14241;49.260;10.496;2022-10-31T14:34:36;10.18;;;4.05;;
26600;SDS011;14241;49.260;10.496;2022-10-31T14:52:28;11.27;;;4.25;;
26600;SDS011;14241;49.260;10.496;2022-10-31T14:54:54;10.68;;;3.53;;
26600;SDS011;14241;49.260;10.496;2022-10-31T14:57:32;14.02;;;3.80;;
26600;SDS011;14241;49.260;10.496;2022-10-31T15:00:04;9.25;;;3.50;;
26600;SDS011;14241;49.260;10.496;2022-10-31T15:03:16;9.10;;;3.17;;
26600;SDS011;14241;49.260;10.496;2022-10-31T15:05:16;10.40;;;3.65;;
26600;SDS011;14241;49.260;10.496;2022-10-31T15:07:51;8.30;;;3.90;;
26600;SDS011;14241;49.260;10.496;2022-10-31T15:10:20;9.48;;;4.20;;
26600;SDS011;14241;49.260;10.496;2022-10-31T15:12:46;8.88;;;3.58;;
26600;SDS011;14241;49.260;10.496;2022-10-31T15:15:12;13.35;;;3.72;;
26600;SDS011;14241;49.260;10.496;2022-10-31T15:17:41;15.70;;;3.85;;
26600;SDS011;14241;49.260;10.496;2022-10-31T15:20:10;12.00;;;4.13;;
26600;SDS011;14241;49.260;10.496;2022-10-31T15:22:36;8.40;;;3.35;;
26600;SDS011;14241;49.260;10.496;2022-10-31T15:25:01;9.88;;;4.00;;
26600;SDS011;14241;49.260;10.496;2022-10-31T15:27:26;11.63;;;3.80;;
26600;SDS011;14241;49.260;10.496;2022-10-31T15:29:54;12.07;;;3.40;;
26600;SDS011;14241;49.260;10.496;2022-10-31T15:32:21;15.23;;;3.90;;
26600;SDS011;14241;49.260;10.496;2022-10-31T15:34:48;10.23;;;3.47;;
26600;SDS011;14241;49.260;10.496;2022-10-31T15:37:14;10.45;;;3.72;;
26600;SDS011;14241;49.260;10.496;2022-10-31T15:39:39;10.45;;;3.97;;
26600;SDS011;14241;49.260;10.496;2022-10-31T15:42:13;9.20;;;4.07;;
26600;SDS011;14241;49.260;10.496;2022-10-31T15:44:40;15.35;;;4.65;;
26600;SDS011;14241;49.260;10.496;2022-10-31T15:47:13;13.68;;;4.70;;
26600;SDS011;14241;49.260;10.496;2022-10-31T15:49:40;8.52;;;4.10;;
26600;SDS011;14241;49.260;10.496;2022-10-31T15:54:51;14.90;;;4.60;;
26600;SDS011;14241;49.260;10.496;2022-10-31T15:57:18;9.05;;;4.38;;
26600;SDS011;14241;49.260;10.496;2022-10-31T15:59:45;13.13;;;4.35;;
26600;SDS011;14241;49.260;10.496;2022-10-31T16:02:11;14.48;;;4.85;;
26600;SDS011;14241;49.260;10.496;2022-10-31T16:04:37;14.38;;;5.25;;
26600;SDS011;14241;49.260;10.496;2022-10-31T16:07:13;14.30;;;5.38;;
26600;SDS011;14241;49.260;10.496;2022-10-31T16:09:48;12.07;;;5.57;;
26600;SDS011;14241;49.260;10.496;2022-10-31T16:12:13;15.90;;;6.18;;
26600;SDS011;14241;49.260;10.496;2022-10-31T16:14:39;12.52;;;6.35;;
26600;SDS011;14241;49.260;10.496;2022-10-31T16:17:05;20.80;;;5.45;;
26600;SDS011;14241;49.260;10.496;2022-10-31T16:19:36;23.30;;;5.97;;
26600;SDS011;14241;49.260;10.496;2022-10-31T16:24:29;14.30;;;5.20;;
26600;SDS011;14241;49.260;10.496;2022-10-31T16:26:58;17.75;;;5.88;;
26600;SDS011;14241;49.260;10.496;2022-10-31T16:31:52;14.23;;;5.57;;
26600;SDS011;14241;49.260;10.496;2022-10-31T16:34:20;18.92;;;5.80;;
26600;SDS011;14241;49.260;10.496;2022-10-31T16:36:45;17.25;;;6.35;;
26600;SDS011;14241;49.260;10.496;2022-10-31T16:39:10;19.58;;;6.07;;
26600;SDS011;14241;49.260;10.496;2022-10-31T16:41:39;18.02;;;6.28;;
26600;SDS011;14241;49.260;10.496;2022-10-31T16:44:06;14.38;;;5.75;;
26600;SDS011;14241;49.260;10.496;2022-10-31T16:46:37;14.80;;;6.18;;
26600;SDS011;14241;49.260;10.496;2022-10-31T16:49:03;14.85;;;6.22;;
26600;SDS011;14241;49.260;10.496;2022-10-31T16:51:28;20.77;;;7.20;;
26600;SDS011;14241;49.260;10.496;2022-10-31T16:53:53;16.57;;;7.53;;
26600;SDS011;14241;49.260;10.496;2022-10-31T16:56:26;19.08;;;7.65;;